Fuji Galaxy — V7UF2 — position and weather

sailwx.info

Track history (hours):
 
Tides and Currents Weather Stations Pressure Air Temp Water Temp Dewpoint Dewpoint Depression Visibility Wind Speed Wind Dir Waves Ship Positions

Fuji Galaxy

Last reported at 2018-Apr-24 10:12 UTC. Time now 2018-Apr-26 03:40 UTC.
Position N 41°18' E 140°11'.

Length 152 m; draft 10.1 m.

Type: Ship (hazmat cat B). MMSI: 538004002.

Date/timePositionNaut miles runAvg speedWind from/ knotsBaromVisibWave heightAir tempDewpointWater temp
2018-Apr-24 10:12N 41°18' E 140°11'312.2
2018-Apr-24 10:00N 41°20' E 140°14'611.2
2018-Apr-24 09:30N 41°23' E 140°20'612.0
2018-Apr-24 09:00N 41°26' E 140°27'611.8
2018-Apr-24 08:29N 41°30' E 140°34'612.4
2018-Apr-24 07:58N 41°33' E 140°40'613.1
2018-Apr-24 07:30N 41°37' E 140°47'612.1
2018-Apr-24 07:00N 41°39' E 140°55'713.0
2018-Apr-24 06:31N 41°39' E 141°04'713.7
2018-Apr-24 06:00N 41°39' E 141°13'713.5
2018-Apr-24 05:30N 41°39' E 141°22'  
Track history (hours):
 
Tides and Currents Weather Stations Pressure Air Temp Water Temp Dewpoint Dewpoint Depression Visibility Wind Speed Wind Dir Waves Ship Positions

Fuji Galaxy

Last reported at 2018-Apr-24 10:12 UTC. Time now 2018-Apr-26 03:40 UTC.
Position N 41°18' E 140°11'.

Length 152 m; draft 10.1 m.

Type: Ship (hazmat cat B). MMSI: 538004002.

Date/timePositionNaut miles runAvg speedWind from/ knotsBaromVisibWave heightAir tempDewpointWater temp
2018-Apr-24 10:12N 41°18' E 140°11'312.2
2018-Apr-24 10:00N 41°20' E 140°14'611.2
2018-Apr-24 09:30N 41°23' E 140°20'612.0
2018-Apr-24 09:00N 41°26' E 140°27'611.8
2018-Apr-24 08:29N 41°30' E 140°34'612.4
2018-Apr-24 07:58N 41°33' E 140°40'613.1
2018-Apr-24 07:30N 41°37' E 140°47'612.1
2018-Apr-24 07:00N 41°39' E 140°55'713.0
2018-Apr-24 06:31N 41°39' E 141°04'713.7
2018-Apr-24 06:00N 41°39' E 141°13'713.5
2018-Apr-24 05:30N 41°39' E 141°22'  

Dump ship's entire track history